createdAt,value
2022-12-03T00:01:17.771Z,8.23
2022-12-03T00:03:45.604Z,8.43
2022-12-03T00:06:12.305Z,8.00
2022-12-03T00:08:38.920Z,8.00
2022-12-03T00:11:11.136Z,8.82
2022-12-03T00:13:38.027Z,8.48
2022-12-03T00:16:06.245Z,8.40
2022-12-03T00:18:36.013Z,8.13
2022-12-03T00:21:02.665Z,8.05
2022-12-03T00:23:29.536Z,9.48
2022-12-03T00:25:57.120Z,10.48
2022-12-03T00:28:23.751Z,9.15
2022-12-03T00:30:50.399Z,9.43
2022-12-03T00:33:17.162Z,9.48
2022-12-03T00:35:43.808Z,9.10
2022-12-03T00:38:10.747Z,9.43
2022-12-03T00:40:38.122Z,9.60
2022-12-03T00:43:06.390Z,10.40
2022-12-03T00:45:33.168Z,8.52
2022-12-03T00:47:59.766Z,9.13
2022-12-03T00:50:26.923Z,9.18
2022-12-03T00:52:53.490Z,9.07
2022-12-03T00:55:20.263Z,10.18
2022-12-03T00:57:50.639Z,9.27
2022-12-03T01:00:17.610Z,9.82
2022-12-03T01:02:44.206Z,8.90
2022-12-03T01:05:11.347Z,8.82
2022-12-03T01:07:38.357Z,9.93
2022-12-03T01:10:05.700Z,8.27
2022-12-03T01:12:32.373Z,8.90
2022-12-03T01:14:59.012Z,9.93
2022-12-03T01:17:26.048Z,9.88
2022-12-03T01:19:52.648Z,9.52
2022-12-03T01:22:19.220Z,10.43
2022-12-03T01:24:46.171Z,10.90
2022-12-03T01:27:12.850Z,9.65
2022-12-03T01:29:39.985Z,9.90
2022-12-03T01:32:10.315Z,9.48
2022-12-03T01:34:37.049Z,9.60
2022-12-03T01:37:05.175Z,10.70
2022-12-03T01:39:32.001Z,9.80
2022-12-03T01:41:59.124Z,10.30
2022-12-03T01:44:28.585Z,9.70
2022-12-03T01:46:57.203Z,10.48
2022-12-03T01:49:28.331Z,9.85
2022-12-03T01:51:57.497Z,10.20
2022-12-03T01:54:33.969Z,9.63
2022-12-03T01:57:03.495Z,10.13
2022-12-03T01:59:37.291Z,10.02
2022-12-03T02:04:49.350Z,10.38
2022-12-03T02:07:23.718Z,10.68
2022-12-03T02:09:51.229Z,11.20
2022-12-03T02:12:23.197Z,11.48
2022-12-03T02:14:50.541Z,10.98
2022-12-03T02:17:17.904Z,10.07
2022-12-03T02:19:44.686Z,9.93
2022-12-03T02:22:27.472Z,9.45
2022-12-03T02:24:58.971Z,9.75
2022-12-03T02:27:28.226Z,9.25
2022-12-03T02:29:55.087Z,10.77
2022-12-03T02:32:22.703Z,10.13
2022-12-03T02:34:52.498Z,8.90
2022-12-03T02:37:26.311Z,9.52
2022-12-03T02:39:56.711Z,9.73
2022-12-03T02:42:23.844Z,11.02
2022-12-03T02:44:50.780Z,12.13
2022-12-03T02:47:18.179Z,13.95
2022-12-03T02:49:45.195Z,11.57
2022-12-03T02:52:11.910Z,10.65
2022-12-03T02:54:38.751Z,12.27
2022-12-03T02:57:08.820Z,12.45
2022-12-03T02:59:35.529Z,11.70
2022-12-03T03:02:02.381Z,12.25
2022-12-03T03:04:29.093Z,11.40
2022-12-03T03:06:56.195Z,12.05
2022-12-03T03:09:22.981Z,10.82
2022-12-03T03:11:49.573Z,11.45
2022-12-03T03:14:16.329Z,11.93
2022-12-03T03:16:43.062Z,11.10
2022-12-03T03:19:10.149Z,10.05
2022-12-03T03:21:36.822Z,11.75
2022-12-03T03:24:07.737Z,11.82
2022-12-03T03:26:35.255Z,13.23
2022-12-03T03:29:04.934Z,11.38
2022-12-03T03:31:32.093Z,10.93
2022-12-03T03:33:58.784Z,11.13
2022-12-03T03:36:29.090Z,12.23
2022-12-03T03:38:58.817Z,11.10
2022-12-03T03:41:27.507Z,10.73
2022-12-03T03:43:54.813Z,10.80
2022-12-03T03:46:22.322Z,11.43
2022-12-03T03:48:50.871Z,11.20
2022-12-03T03:51:19.609Z,12.48
2022-12-03T03:53:49.191Z,11.45
2022-12-03T03:56:22.552Z,11.07
2022-12-03T03:58:52.265Z,11.45
2022-12-03T04:01:19.409Z,11.73
2022-12-03T04:03:46.231Z,12.75
2022-12-03T04:06:12.934Z,13.50
2022-12-03T04:08:39.587Z,13.23
2022-12-03T04:11:06.436Z,12.20
2022-12-03T04:13:33.132Z,13.00
2022-12-03T04:15:59.712Z,12.75
2022-12-03T04:18:27.272Z,12.27
2022-12-03T04:20:54.002Z,13.32
2022-12-03T04:23:20.589Z,12.70
2022-12-03T04:25:47.193Z,12.93
2022-12-03T04:28:13.810Z,13.10
2022-12-03T04:30:40.535Z,13.30
2022-12-03T04:33:07.292Z,13.98
2022-12-03T04:35:37.788Z,13.57
2022-12-03T04:38:05.261Z,13.40
2022-12-03T04:40:37.568Z,14.18
2022-12-03T04:43:04.361Z,13.23
2022-12-03T04:45:34.449Z,13.18
2022-12-03T04:48:01.115Z,13.18
2022-12-03T04:50:27.720Z,13.88
2022-12-03T04:52:55.320Z,14.52
2022-12-03T04:55:23.330Z,13.45
2022-12-03T04:57:52.942Z,13.20
2022-12-03T05:00:19.634Z,13.50
2022-12-03T05:02:46.423Z,12.63
2022-12-03T05:05:13.380Z,13.00
2022-12-03T05:07:40.399Z,12.55
2022-12-03T05:10:08.082Z,13.60
2022-12-03T05:12:38.333Z,13.68
2022-12-03T05:15:06.770Z,14.15
2022-12-03T05:17:37.302Z,12.60
2022-12-03T05:20:04.123Z,13.63
2022-12-03T05:22:33.354Z,13.85
2022-12-03T05:24:59.996Z,15.10
2022-12-03T05:27:26.614Z,14.55
2022-12-03T05:29:53.385Z,15.23
2022-12-03T05:32:20.142Z,14.63
2022-12-03T05:34:46.853Z,14.73
2022-12-03T05:37:17.963Z,13.77
2022-12-03T05:39:45.601Z,14.82
2022-12-03T05:42:15.676Z,13.75
2022-12-03T05:44:42.308Z,13.57
2022-12-03T05:47:09.046Z,14.10
2022-12-03T05:49:37.593Z,13.68
2022-12-03T05:52:04.812Z,15.00
2022-12-03T05:54:34.416Z,14.35
2022-12-03T05:57:04.106Z,15.88
2022-12-03T06:02:02.711Z,15.98
2022-12-03T06:04:29.394Z,15.23
2022-12-03T06:07:01.406Z,16.50
2022-12-03T06:09:36.034Z,15.43
2022-12-03T06:12:02.808Z,14.30
2022-12-03T06:14:30.881Z,15.52
2022-12-03T06:16:57.587Z,16.02
2022-12-03T06:19:24.205Z,15.38
2022-12-03T06:21:50.837Z,15.25
2022-12-03T06:24:19.278Z,16.80
2022-12-03T06:26:48.956Z,15.57
2022-12-03T06:29:16.341Z,16.27
2022-12-03T06:31:43.036Z,14.80
2022-12-03T06:34:13.745Z,14.27
2022-12-03T06:36:40.434Z,14.25
2022-12-03T06:39:09.003Z,14.63
2022-12-03T06:41:44.284Z,13.77
2022-12-03T06:44:11.145Z,13.70
2022-12-03T06:46:37.763Z,14.63
2022-12-03T06:49:04.377Z,14.88
2022-12-03T06:51:31.030Z,14.20
2022-12-03T06:53:57.606Z,16.38
2022-12-03T06:56:24.625Z,17.10
2022-12-03T06:58:51.768Z,16.42
2022-12-03T07:01:18.674Z,17.17
2022-12-03T07:03:45.298Z,16.95
2022-12-03T07:06:12.225Z,18.88
2022-12-03T07:08:38.877Z,16.17
2022-12-03T07:11:07.393Z,16.27
2022-12-03T07:13:34.023Z,16.70
2022-12-03T07:16:01.812Z,16.48
2022-12-03T07:18:28.550Z,16.67
2022-12-03T07:20:55.374Z,16.77
2022-12-03T07:23:21.974Z,16.17
2022-12-03T07:25:51.602Z,16.40
2022-12-03T07:28:21.569Z,15.68
2022-12-03T07:30:48.206Z,14.57
2022-12-03T07:33:14.814Z,15.30
2022-12-03T07:35:42.468Z,15.45
2022-12-03T07:38:09.019Z,14.10
2022-12-03T07:40:35.634Z,14.45
2022-12-03T07:43:02.336Z,13.40
2022-12-03T07:45:29.382Z,12.85
2022-12-03T07:47:56.758Z,11.75
2022-12-03T07:50:23.354Z,13.48
2022-12-03T07:52:50.316Z,13.10
2022-12-03T07:55:17.019Z,12.63
2022-12-03T07:57:46.708Z,12.13
2022-12-03T08:00:14.396Z,12.45
2022-12-03T08:02:42.563Z,11.20
2022-12-03T08:05:14.323Z,12.85
2022-12-03T08:07:44.474Z,12.02
2022-12-03T08:10:11.277Z,12.57
2022-12-03T08:12:42.554Z,13.13
2022-12-03T08:15:12.232Z,13.25
2022-12-03T08:17:38.894Z,12.52
2022-12-03T08:20:23.294Z,12.10
2022-12-03T08:22:51.627Z,12.75
2022-12-03T08:25:28.386Z,13.20
2022-12-03T08:28:23.289Z,13.43
2022-12-03T08:31:05.701Z,12.45
2022-12-03T08:33:34.275Z,13.13
2022-12-03T08:36:09.164Z,12.18
2022-12-03T08:38:35.766Z,12.65
2022-12-03T08:41:02.516Z,13.02
2022-12-03T08:43:33.575Z,12.10
2022-12-03T08:46:00.368Z,13.02
2022-12-03T08:48:47.069Z,12.40
2022-12-03T08:51:21.407Z,12.65
2022-12-03T08:54:42.784Z,12.48
2022-12-03T08:57:34.974Z,12.93
2022-12-03T09:00:19.382Z,12.13
2022-12-03T09:02:51.712Z,13.55
2022-12-03T09:05:38.538Z,13.50
2022-12-03T09:08:05.328Z,13.02
2022-12-03T09:10:32.127Z,14.30
2022-12-03T09:12:58.746Z,13.05
2022-12-03T09:15:25.486Z,12.13
2022-12-03T09:17:52.575Z,11.63
2022-12-03T09:20:19.373Z,11.68
2022-12-03T09:22:46.227Z,11.82
2022-12-03T09:25:12.906Z,12.10
2022-12-03T09:27:39.587Z,10.90
2022-12-03T09:30:06.869Z,10.77
2022-12-03T09:32:33.647Z,11.25
2022-12-03T09:35:01.674Z,11.43
2022-12-03T09:37:40.715Z,10.82
2022-12-03T09:40:08.617Z,10.60
2022-12-03T09:42:38.126Z,11.48
2022-12-03T09:45:09.820Z,10.55
2022-12-03T09:47:37.799Z,11.07
2022-12-03T09:50:45.310Z,11.25
2022-12-03T09:53:14.535Z,11.70
2022-12-03T09:55:44.096Z,11.40
2022-12-03T09:58:18.554Z,11.50
2022-12-03T10:00:52.164Z,12.55
2022-12-03T10:03:30.829Z,12.90
2022-12-03T10:05:57.974Z,12.82
2022-12-03T10:08:33.036Z,13.07
2022-12-03T10:10:59.807Z,13.35
2022-12-03T10:13:30.001Z,14.57
2022-12-03T10:16:00.706Z,13.43
2022-12-03T10:18:32.078Z,15.18
2022-12-03T10:21:00.269Z,14.02
2022-12-03T10:23:29.793Z,14.13
2022-12-03T10:25:56.337Z,14.77
2022-12-03T10:28:41.607Z,13.77
2022-12-03T10:31:12.726Z,13.30
2022-12-03T10:33:42.624Z,14.88
2022-12-03T10:36:24.966Z,15.32
2022-12-03T10:39:06.830Z,14.43
2022-12-03T10:41:33.806Z,15.45
2022-12-03T10:44:28.575Z,16.00
2022-12-03T10:47:14.572Z,16.40
2022-12-03T10:49:43.561Z,17.63
2022-12-03T10:52:40.461Z,15.93
2022-12-03T10:55:12.244Z,18.02
2022-12-03T10:57:45.223Z,17.73
2022-12-03T11:00:20.829Z,15.55
2022-12-03T11:02:54.678Z,15.77
2022-12-03T11:05:29.759Z,17.15
2022-12-03T11:08:00.818Z,15.32
2022-12-03T11:10:27.706Z,15.13
2022-12-03T11:13:39.653Z,15.63
2022-12-03T11:16:06.747Z,15.13
2022-12-03T11:18:36.071Z,14.88
2022-12-03T11:21:09.440Z,15.02
2022-12-03T11:23:45.028Z,15.55
2022-12-03T11:26:19.735Z,15.60
2022-12-03T11:28:46.621Z,14.88
2022-12-03T11:31:41.807Z,15.05
2022-12-03T11:37:12.109Z,13.27
2022-12-03T11:39:51.954Z,13.30
2022-12-03T11:42:21.911Z,12.80
2022-12-03T11:45:09.142Z,14.00
2022-12-03T11:47:43.190Z,14.02
2022-12-03T11:50:16.147Z,14.07
2022-12-03T11:52:45.375Z,14.15
2022-12-03T11:55:25.197Z,14.23
2022-12-03T11:57:59.418Z,14.35
2022-12-03T12:00:29.606Z,12.57
2022-12-03T12:02:58.063Z,13.35
2022-12-03T12:05:34.976Z,13.52
2022-12-03T12:08:02.730Z,12.32
2022-12-03T12:10:41.364Z,13.10
2022-12-03T12:13:26.846Z,13.07
2022-12-03T12:15:56.810Z,12.48
2022-12-03T12:18:53.739Z,13.95
2022-12-03T12:21:50.799Z,14.35
2022-12-03T12:24:32.502Z,13.75
2022-12-03T12:27:17.357Z,15.80
2022-12-03T12:32:11.602Z,16.48
2022-12-03T12:34:45.001Z,14.77
2022-12-03T12:37:22.517Z,15.75
2022-12-03T12:39:54.770Z,16.70
2022-12-03T12:42:34.754Z,15.30
2022-12-03T12:45:22.977Z,16.60
2022-12-03T12:48:10.046Z,18.00
2022-12-03T12:50:38.043Z,17.60
2022-12-03T12:53:14.223Z,17.02
2022-12-03T12:55:42.561Z,16.90
2022-12-03T12:58:20.002Z,17.08
2022-12-03T13:00:56.278Z,16.45
2022-12-03T13:03:36.606Z,15.95
2022-12-03T13:06:04.319Z,15.55
2022-12-03T13:08:39.105Z,16.00
2022-12-03T13:11:11.016Z,14.48
2022-12-03T13:13:44.061Z,15.32
2022-12-03T13:16:25.731Z,15.48
2022-12-03T13:19:20.570Z,15.25
2022-12-03T13:21:49.470Z,16.48
2022-12-03T13:24:34.271Z,15.40
2022-12-03T13:27:19.232Z,14.55
2022-12-03T13:32:19.011Z,14.82
2022-12-03T13:34:46.113Z,13.27
2022-12-03T13:37:15.786Z,14.20
2022-12-03T13:39:48.978Z,13.73
2022-12-03T13:42:21.993Z,13.45
2022-12-03T13:44:49.970Z,14.07
2022-12-03T13:47:20.854Z,13.40
2022-12-03T13:50:00.820Z,13.98
2022-12-03T13:52:27.575Z,12.43
2022-12-03T13:54:56.188Z,13.40
2022-12-03T13:57:23.471Z,14.10
2022-12-03T13:59:50.419Z,14.23
2022-12-03T14:02:17.885Z,12.07
2022-12-03T14:04:47.802Z,15.00
2022-12-03T14:07:14.486Z,13.82
2022-12-03T14:09:41.066Z,14.77
2022-12-03T14:12:07.666Z,14.73
2022-12-03T14:14:34.299Z,14.88
2022-12-03T14:17:01.057Z,15.85
2022-12-03T14:19:32.995Z,13.57
2022-12-03T14:21:59.584Z,14.30
2022-12-03T14:24:26.335Z,15.45
2022-12-03T14:26:52.979Z,14.00
2022-12-03T14:29:19.605Z,15.15
2022-12-03T14:31:46.381Z,15.15
2022-12-03T14:34:13.251Z,14.57
2022-12-03T14:36:39.973Z,13.40
2022-12-03T14:39:06.658Z,12.35
2022-12-03T14:41:33.305Z,14.35
2022-12-03T14:43:59.912Z,13.32
2022-12-03T14:46:26.668Z,15.82
2022-12-03T14:48:53.257Z,16.77
2022-12-03T14:51:22.140Z,14.35
2022-12-03T14:53:51.705Z,16.60
2022-12-03T14:56:19.043Z,14.73
2022-12-03T14:58:45.609Z,15.43
2022-12-03T15:01:12.234Z,17.70
2022-12-03T15:03:38.802Z,16.48
2022-12-03T15:06:08.069Z,16.58
2022-12-03T15:08:37.750Z,17.35
2022-12-03T15:11:04.352Z,17.42
2022-12-03T15:16:04.726Z,17.30
2022-12-03T15:18:31.236Z,17.00
2022-12-03T15:20:58.035Z,16.23
2022-12-03T15:23:24.695Z,15.95
2022-12-03T15:25:51.230Z,15.45
2022-12-03T15:28:18.260Z,15.43
2022-12-03T15:30:45.057Z,15.68
2022-12-03T15:33:11.639Z,16.30
2022-12-03T15:35:38.247Z,15.45
2022-12-03T15:38:04.850Z,14.90
2022-12-03T15:40:31.484Z,15.68
2022-12-03T15:42:58.077Z,15.95
2022-12-03T15:45:28.783Z,15.20
2022-12-03T15:47:55.410Z,16.13
2022-12-03T15:50:22.051Z,15.98
2022-12-03T15:55:20.265Z,16.30
2022-12-03T15:57:46.930Z,13.27
2022-12-03T16:00:14.351Z,14.02
2022-12-03T16:02:41.249Z,17.13
2022-12-03T16:05:11.088Z,15.15
2022-12-03T16:07:39.757Z,16.35
2022-12-03T16:10:08.306Z,16.73
2022-12-03T16:12:35.038Z,14.65
2022-12-03T16:15:01.713Z,14.45
2022-12-03T16:17:28.335Z,14.68
2022-12-03T16:19:55.208Z,16.92
2022-12-03T16:22:21.951Z,16.67
2022-12-03T16:24:48.992Z,18.05
2022-12-03T16:27:15.566Z,20.42
2022-12-03T16:29:42.786Z,19.27
2022-12-03T16:32:09.440Z,21.23
2022-12-03T16:34:36.056Z,19.73
2022-12-03T16:37:02.744Z,21.17
2022-12-03T16:39:29.356Z,21.40
2022-12-03T16:42:01.440Z,22.20
2022-12-03T16:44:28.063Z,21.58
2022-12-03T16:46:54.876Z,21.30
2022-12-03T16:49:21.534Z,19.15
2022-12-03T16:51:48.263Z,20.33
2022-12-03T16:54:15.820Z,19.08
2022-12-03T16:56:45.686Z,19.40
2022-12-03T16:59:12.295Z,19.25
2022-12-03T17:01:39.039Z,18.60
2022-12-03T17:06:37.133Z,15.73
2022-12-03T17:09:03.896Z,19.73
2022-12-03T17:11:30.701Z,14.80
2022-12-03T17:13:57.296Z,14.43
2022-12-03T17:16:24.117Z,14.45
2022-12-03T17:18:50.730Z,15.27
2022-12-03T17:21:17.385Z,15.13
2022-12-03T17:23:44.545Z,14.75
2022-12-03T17:26:11.234Z,15.63
2022-12-03T17:28:40.861Z,15.18
2022-12-03T17:31:07.541Z,15.10
2022-12-03T17:33:34.151Z,17.95
2022-12-03T17:36:03.955Z,16.73
2022-12-03T17:38:35.667Z,16.45
2022-12-03T17:41:06.125Z,22.10
2022-12-03T17:43:37.654Z,18.77
2022-12-03T17:46:04.748Z,18.73
2022-12-03T17:48:34.113Z,15.63
2022-12-03T17:51:04.759Z,17.63
2022-12-03T17:53:33.317Z,17.85
2022-12-03T17:55:59.887Z,19.33
2022-12-03T17:58:26.716Z,17.40
2022-12-03T18:00:57.292Z,15.63
2022-12-03T18:03:29.079Z,13.27
2022-12-03T18:05:55.716Z,16.08
2022-12-03T18:08:22.329Z,15.48
2022-12-03T18:10:49.018Z,16.27
2022-12-03T18:15:47.297Z,17.02
2022-12-03T18:18:13.969Z,16.13
2022-12-03T18:20:40.723Z,18.23
2022-12-03T18:23:07.278Z,16.55
2022-12-03T18:25:33.876Z,16.02
2022-12-03T18:28:03.922Z,13.85
2022-12-03T18:30:30.667Z,14.88
2022-12-03T18:32:57.572Z,16.75
2022-12-03T18:35:24.524Z,16.58
2022-12-03T18:37:51.631Z,19.77
2022-12-03T18:40:23.247Z,18.60
2022-12-03T18:42:50.206Z,16.60
2022-12-03T18:45:17.449Z,17.02
2022-12-03T18:47:44.505Z,15.63
2022-12-03T18:50:11.824Z,18.63
2022-12-03T18:52:39.407Z,17.02
2022-12-03T18:55:07.200Z,16.00
2022-12-03T18:57:34.514Z,24.73
2022-12-03T19:00:01.307Z,13.73
2022-12-03T19:03:00.998Z,14.40
2022-12-03T19:05:20.077Z,14.45
2022-12-03T19:07:46.751Z,15.38
2022-12-03T19:10:13.460Z,17.27
2022-12-03T19:12:40.049Z,16.25
2022-12-03T19:15:07.909Z,15.05
2022-12-03T19:17:34.484Z,13.13
2022-12-03T19:20:01.128Z,13.75
2022-12-03T19:22:32.903Z,15.40
2022-12-03T19:24:59.501Z,14.82
2022-12-03T19:27:28.009Z,15.23
2022-12-03T19:29:55.029Z,13.68
2022-12-03T19:32:22.369Z,18.10
2022-12-03T19:34:49.317Z,15.40
2022-12-03T19:37:17.146Z,16.85
2022-12-03T19:39:43.832Z,16.30
2022-12-03T19:42:10.483Z,15.68
2022-12-03T19:44:37.154Z,15.02
2022-12-03T19:47:03.756Z,14.80
2022-12-03T19:49:31.653Z,14.93
2022-12-03T19:51:58.264Z,15.25
2022-12-03T19:54:24.946Z,15.23
2022-12-03T19:56:52.084Z,17.48
2022-12-03T19:59:18.747Z,13.73
2022-12-03T20:01:45.569Z,14.43
2022-12-03T20:04:15.961Z,13.85
2022-12-03T20:06:42.931Z,15.60
2022-12-03T20:09:14.775Z,15.18
2022-12-03T20:11:44.040Z,15.55
2022-12-03T20:14:14.163Z,14.88
2022-12-03T20:16:41.222Z,14.68
2022-12-03T20:19:12.249Z,14.70
2022-12-03T20:21:40.097Z,16.83
2022-12-03T20:24:07.710Z,14.57
2022-12-03T20:26:34.411Z,14.30
2022-12-03T20:29:01.374Z,15.52
2022-12-03T20:31:31.422Z,15.57
2022-12-03T20:34:01.480Z,15.88
2022-12-03T20:36:30.529Z,18.38
2022-12-03T20:38:59.797Z,16.60
2022-12-03T20:41:26.724Z,15.75
2022-12-03T20:43:55.079Z,19.33
2022-12-03T20:46:24.132Z,19.00
2022-12-03T20:48:52.002Z,18.75
2022-12-03T20:51:20.226Z,18.20
2022-12-03T20:53:47.729Z,17.65
2022-12-03T20:58:54.583Z,18.63
2022-12-03T21:01:23.938Z,17.48
2022-12-03T21:03:51.944Z,20.83
2022-12-03T21:06:19.551Z,18.10
2022-12-03T21:08:46.507Z,19.35
2022-12-03T21:11:16.057Z,20.95
2022-12-03T21:13:43.066Z,16.23
2022-12-03T21:16:13.098Z,19.67
2022-12-03T21:18:40.400Z,18.83
2022-12-03T21:21:08.307Z,20.30
2022-12-03T21:23:54.110Z,18.40
2022-12-03T21:26:26.055Z,18.42
2022-12-03T21:29:00.965Z,18.90
2022-12-03T21:31:27.904Z,17.10
2022-12-03T21:33:56.041Z,15.40
2022-12-03T21:36:23.268Z,19.75
2022-12-03T21:38:50.246Z,13.35
2022-12-03T21:41:18.631Z,14.95
2022-12-03T21:43:50.231Z,18.83
2022-12-03T21:47:09.508Z,17.33
2022-12-03T21:49:06.277Z,18.45
2022-12-03T21:51:33.013Z,20.77
2022-12-03T21:53:59.618Z,17.27
2022-12-03T21:56:30.450Z,16.30
2022-12-03T21:58:57.958Z,15.65
2022-12-03T22:01:27.702Z,21.30
2022-12-03T22:03:55.077Z,17.67
2022-12-03T22:06:22.480Z,20.15
2022-12-03T22:08:58.224Z,20.17
2022-12-03T22:11:25.032Z,18.63
2022-12-03T22:13:54.676Z,19.80
2022-12-03T22:16:22.031Z,16.45
2022-12-03T22:18:49.690Z,17.80
2022-12-03T22:21:20.425Z,16.55
2022-12-03T22:23:47.043Z,16.85
2022-12-03T22:26:15.921Z,19.73
2022-12-03T22:28:47.687Z,14.50
2022-12-03T22:31:15.441Z,20.63
2022-12-03T22:33:47.974Z,18.90
2022-12-03T22:36:20.078Z,18.33
2022-12-03T22:38:47.572Z,17.13
2022-12-03T22:41:19.013Z,18.33
2022-12-03T22:43:50.057Z,20.50
2022-12-03T22:46:19.745Z,23.45
2022-12-03T22:48:46.934Z,19.52
2022-12-03T22:51:23.164Z,22.70
2022-12-03T22:53:57.765Z,22.50
2022-12-03T22:58:52.039Z,20.40
2022-12-03T23:01:25.874Z,17.52
2022-12-03T23:03:55.282Z,21.40
2022-12-03T23:06:22.956Z,22.73
2022-12-03T23:08:50.684Z,18.85
2022-12-03T23:11:17.853Z,18.70
2022-12-03T23:13:44.478Z,18.70
2022-12-03T23:16:16.004Z,21.50
2022-12-03T23:18:42.924Z,19.15
2022-12-03T23:21:09.559Z,16.85
2022-12-03T23:23:36.164Z,21.20
2022-12-03T23:26:06.615Z,19.02
2022-12-03T23:28:35.987Z,18.33
2022-12-03T23:31:03.544Z,18.13
2022-12-03T23:33:35.278Z,19.58
2022-12-03T23:36:08.188Z,15.50
2022-12-03T23:38:37.987Z,19.13
2022-12-03T23:41:06.173Z,15.48
2022-12-03T23:43:32.828Z,22.88
2022-12-03T23:46:08.094Z,26.05
2022-12-03T23:48:35.658Z,20.00
2022-12-03T23:51:16.144Z,21.70
2022-12-03T23:53:42.800Z,19.48
2022-12-03T23:56:13.714Z,19.45
2022-12-03T23:58:44.138Z,18.67
